sensor_id;sensor_type;location;lat;lon;timestamp;P1;durP1;ratioP1;P2;durP2;ratioP2
59970;SDS011;45825;45.434;9.116;2023-01-08T00:01:33;45.38;;;26.30;;
59970;SDS011;45825;45.434;9.116;2023-01-08T00:03:58;47.53;;;27.15;;
59970;SDS011;45825;45.434;9.116;2023-01-08T00:06:23;50.42;;;27.23;;
59970;SDS011;45825;45.434;9.116;2023-01-08T00:08:49;45.95;;;26.52;;
59970;SDS011;45825;45.434;9.116;2023-01-08T00:11:14;49.90;;;27.73;;
59970;SDS011;45825;45.434;9.116;2023-01-08T00:13:41;49.38;;;26.95;;
59970;SDS011;45825;45.434;9.116;2023-01-08T00:16:08;47.75;;;26.15;;
59970;SDS011;45825;45.434;9.116;2023-01-08T00:18:35;45.53;;;26.98;;
59970;SDS011;45825;45.434;9.116;2023-01-08T00:21:00;48.97;;;26.88;;
59970;SDS011;45825;45.434;9.116;2023-01-08T00:23:28;50.20;;;27.65;;
59970;SDS011;45825;45.434;9.116;2023-01-08T00:25:53;50.67;;;26.88;;
59970;SDS011;45825;45.434;9.116;2023-01-08T00:28:18;55.78;;;29.05;;
59970;SDS011;45825;45.434;9.116;2023-01-08T00:30:45;51.97;;;27.73;;
59970;SDS011;45825;45.434;9.116;2023-01-08T00:33:11;49.17;;;27.90;;
59970;SDS011;45825;45.434;9.116;2023-01-08T00:35:37;52.95;;;27.70;;
59970;SDS011;45825;45.434;9.116;2023-01-08T00:38:03;56.67;;;28.83;;
59970;SDS011;45825;45.434;9.116;2023-01-08T00:40:28;52.28;;;29.42;;
59970;SDS011;45825;45.434;9.116;2023-01-08T00:42:53;61.05;;;29.15;;
59970;SDS011;45825;45.434;9.116;2023-01-08T00:45:19;52.17;;;28.10;;
59970;SDS011;45825;45.434;9.116;2023-01-08T00:47:44;50.10;;;27.90;;
59970;SDS011;45825;45.434;9.116;2023-01-08T00:50:09;52.10;;;26.77;;
59970;SDS011;45825;45.434;9.116;2023-01-08T00:52:35;56.38;;;28.17;;
59970;SDS011;45825;45.434;9.116;2023-01-08T00:55:00;56.22;;;29.67;;
59970;SDS011;45825;45.434;9.116;2023-01-08T00:57:25;54.45;;;29.52;;
59970;SDS011;45825;45.434;9.116;2023-01-08T00:59:50;64.93;;;30.58;;
59970;SDS011;45825;45.434;9.116;2023-01-08T01:02:16;60.90;;;29.90;;
59970;SDS011;45825;45.434;9.116;2023-01-08T01:04:41;63.22;;;30.42;;
59970;SDS011;45825;45.434;9.116;2023-01-08T01:07:06;58.30;;;29.75;;
59970;SDS011;45825;45.434;9.116;2023-01-08T01:09:32;67.03;;;31.58;;
59970;SDS011;45825;45.434;9.116;2023-01-08T01:11:57;68.22;;;31.63;;
59970;SDS011;45825;45.434;9.116;2023-01-08T01:14:22;66.07;;;31.80;;
59970;SDS011;45825;45.434;9.116;2023-01-08T01:16:48;56.78;;;29.50;;
59970;SDS011;45825;45.434;9.116;2023-01-08T01:19:14;65.75;;;30.45;;
59970;SDS011;45825;45.434;9.116;2023-01-08T01:21:40;65.10;;;30.75;;
59970;SDS011;45825;45.434;9.116;2023-01-08T01:24:06;77.10;;;35.55;;
59970;SDS011;45825;45.434;9.116;2023-01-08T01:26:33;70.07;;;33.80;;
59970;SDS011;45825;45.434;9.116;2023-01-08T01:28:59;57.15;;;28.40;;
59970;SDS011;45825;45.434;9.116;2023-01-08T01:31:25;64.15;;;29.05;;
59970;SDS011;45825;45.434;9.116;2023-01-08T01:33:53;57.67;;;28.27;;
59970;SDS011;45825;45.434;9.116;2023-01-08T01:36:19;58.05;;;29.15;;
59970;SDS011;45825;45.434;9.116;2023-01-08T01:38:48;60.17;;;29.67;;
59970;SDS011;45825;45.434;9.116;2023-01-08T01:41:17;60.65;;;28.67;;
59970;SDS011;45825;45.434;9.116;2023-01-08T01:43:57;55.92;;;28.25;;
59970;SDS011;45825;45.434;9.116;2023-01-08T01:46:43;56.92;;;28.58;;
59970;SDS011;45825;45.434;9.116;2023-01-08T01:49:13;57.15;;;29.02;;
59970;SDS011;45825;45.434;9.116;2023-01-08T01:51:45;53.22;;;27.23;;
59970;SDS011;45825;45.434;9.116;2023-01-08T01:54:13;53.13;;;27.60;;
59970;SDS011;45825;45.434;9.116;2023-01-08T01:56:41;46.30;;;25.83;;
59970;SDS011;45825;45.434;9.116;2023-01-08T01:59:07;51.20;;;27.80;;
59970;SDS011;45825;45.434;9.116;2023-01-08T02:01:33;55.80;;;28.50;;
59970;SDS011;45825;45.434;9.116;2023-01-08T02:04:00;50.85;;;28.15;;
59970;SDS011;45825;45.434;9.116;2023-01-08T02:06:45;51.63;;;29.20;;
59970;SDS011;45825;45.434;9.116;2023-01-08T02:09:23;56.33;;;29.95;;
59970;SDS011;45825;45.434;9.116;2023-01-08T02:11:59;55.35;;;30.30;;
59970;SDS011;45825;45.434;9.116;2023-01-08T02:20:27;54.05;;;28.65;;
59970;SDS011;45825;45.434;9.116;2023-01-08T02:23:07;53.15;;;28.67;;
59970;SDS011;45825;45.434;9.116;2023-01-08T02:28:28;59.50;;;29.48;;
59970;SDS011;45825;45.434;9.116;2023-01-08T02:30:55;61.08;;;30.55;;
59970;SDS011;45825;45.434;9.116;2023-01-08T02:33:22;60.85;;;30.00;;
59970;SDS011;45825;45.434;9.116;2023-01-08T02:35:51;60.33;;;30.33;;
59970;SDS011;45825;45.434;9.116;2023-01-08T02:38:19;55.47;;;28.92;;
59970;SDS011;45825;45.434;9.116;2023-01-08T02:40:51;61.15;;;30.65;;
59970;SDS011;45825;45.434;9.116;2023-01-08T02:43:32;64.85;;;31.23;;
59970;SDS011;45825;45.434;9.116;2023-01-08T02:46:06;62.22;;;31.23;;
59970;SDS011;45825;45.434;9.116;2023-01-08T02:48:56;55.20;;;30.27;;
59970;SDS011;45825;45.434;9.116;2023-01-08T02:51:30;63.67;;;30.92;;
59970;SDS011;45825;45.434;9.116;2023-01-08T02:53:58;58.15;;;30.40;;
59970;SDS011;45825;45.434;9.116;2023-01-08T02:56:31;61.83;;;31.20;;
59970;SDS011;45825;45.434;9.116;2023-01-08T02:59:00;53.97;;;29.02;;
59970;SDS011;45825;45.434;9.116;2023-01-08T03:01:29;55.78;;;30.05;;
59970;SDS011;45825;45.434;9.116;2023-01-08T03:03:58;52.05;;;29.15;;
59970;SDS011;45825;45.434;9.116;2023-01-08T03:06:27;54.90;;;30.08;;
59970;SDS011;45825;45.434;9.116;2023-01-08T03:08:54;54.20;;;29.08;;
59970;SDS011;45825;45.434;9.116;2023-01-08T03:11:20;56.45;;;29.58;;
59970;SDS011;45825;45.434;9.116;2023-01-08T03:13:54;53.70;;;28.27;;
59970;SDS011;45825;45.434;9.116;2023-01-08T03:16:38;52.60;;;28.77;;
59970;SDS011;45825;45.434;9.116;2023-01-08T03:19:18;52.60;;;27.83;;
59970;SDS011;45825;45.434;9.116;2023-01-08T03:21:47;56.35;;;29.02;;
59970;SDS011;45825;45.434;9.116;2023-01-08T03:24:21;53.83;;;28.63;;
59970;SDS011;45825;45.434;9.116;2023-01-08T03:26:49;56.00;;;31.08;;
59970;SDS011;45825;45.434;9.116;2023-01-08T03:29:18;55.38;;;29.38;;
59970;SDS011;45825;45.434;9.116;2023-01-08T03:31:45;56.40;;;29.67;;
59970;SDS011;45825;45.434;9.116;2023-01-08T03:34:13;49.35;;;28.20;;
59970;SDS011;45825;45.434;9.116;2023-01-08T03:36:40;50.67;;;27.88;;
59970;SDS011;45825;45.434;9.116;2023-01-08T03:39:21;53.63;;;29.98;;
59970;SDS011;45825;45.434;9.116;2023-01-08T03:41:49;53.42;;;28.77;;
59970;SDS011;45825;45.434;9.116;2023-01-08T03:44:20;52.90;;;29.23;;
59970;SDS011;45825;45.434;9.116;2023-01-08T03:46:47;50.00;;;29.13;;
59970;SDS011;45825;45.434;9.116;2023-01-08T03:49:17;57.25;;;29.67;;
59970;SDS011;45825;45.434;9.116;2023-01-08T03:51:45;56.55;;;30.42;;
59970;SDS011;45825;45.434;9.116;2023-01-08T03:54:18;55.30;;;30.10;;
59970;SDS011;45825;45.434;9.116;2023-01-08T03:56:47;57.25;;;29.27;;
59970;SDS011;45825;45.434;9.116;2023-01-08T03:59:13;56.65;;;31.20;;
59970;SDS011;45825;45.434;9.116;2023-01-08T04:01:39;53.13;;;30.02;;
59970;SDS011;45825;45.434;9.116;2023-01-08T04:04:05;51.95;;;28.67;;
59970;SDS011;45825;45.434;9.116;2023-01-08T04:06:31;52.55;;;29.30;;
59970;SDS011;45825;45.434;9.116;2023-01-08T04:08:56;54.22;;;28.77;;
59970;SDS011;45825;45.434;9.116;2023-01-08T04:11:21;50.35;;;28.60;;
59970;SDS011;45825;45.434;9.116;2023-01-08T04:13:47;46.88;;;26.88;;
59970;SDS011;45825;45.434;9.116;2023-01-08T04:16:12;49.55;;;29.20;;
59970;SDS011;45825;45.434;9.116;2023-01-08T04:18:38;46.28;;;27.55;;
59970;SDS011;45825;45.434;9.116;2023-01-08T04:21:03;49.53;;;28.08;;
59970;SDS011;45825;45.434;9.116;2023-01-08T04:23:29;53.90;;;30.38;;
59970;SDS011;45825;45.434;9.116;2023-01-08T04:25:54;56.05;;;28.90;;
59970;SDS011;45825;45.434;9.116;2023-01-08T04:28:19;49.58;;;28.63;;
59970;SDS011;45825;45.434;9.116;2023-01-08T04:30:45;55.13;;;29.30;;
59970;SDS011;45825;45.434;9.116;2023-01-08T04:33:10;54.80;;;30.20;;
59970;SDS011;45825;45.434;9.116;2023-01-08T04:35:36;53.15;;;28.75;;
59970;SDS011;45825;45.434;9.116;2023-01-08T04:38:01;57.90;;;29.90;;
59970;SDS011;45825;45.434;9.116;2023-01-08T04:40:26;51.10;;;28.40;;
59970;SDS011;45825;45.434;9.116;2023-01-08T04:42:52;50.97;;;28.30;;
59970;SDS011;45825;45.434;9.116;2023-01-08T04:45:17;50.20;;;27.58;;
59970;SDS011;45825;45.434;9.116;2023-01-08T04:47:42;54.47;;;28.58;;
59970;SDS011;45825;45.434;9.116;2023-01-08T04:50:08;49.92;;;28.27;;
59970;SDS011;45825;45.434;9.116;2023-01-08T04:52:33;49.92;;;28.33;;
59970;SDS011;45825;45.434;9.116;2023-01-08T04:54:58;51.63;;;26.98;;
59970;SDS011;45825;45.434;9.116;2023-01-08T04:57:24;53.50;;;27.15;;
59970;SDS011;45825;45.434;9.116;2023-01-08T04:59:49;56.17;;;28.90;;
59970;SDS011;45825;45.434;9.116;2023-01-08T05:02:14;55.90;;;27.55;;
59970;SDS011;45825;45.434;9.116;2023-01-08T05:04:40;56.95;;;29.00;;
59970;SDS011;45825;45.434;9.116;2023-01-08T05:07:05;56.30;;;28.33;;
59970;SDS011;45825;45.434;9.116;2023-01-08T05:09:31;52.95;;;27.88;;
59970;SDS011;45825;45.434;9.116;2023-01-08T05:11:58;59.40;;;27.98;;
59970;SDS011;45825;45.434;9.116;2023-01-08T05:14:23;54.00;;;28.73;;
59970;SDS011;45825;45.434;9.116;2023-01-08T05:16:48;63.90;;;28.65;;
59970;SDS011;45825;45.434;9.116;2023-01-08T05:19:14;57.75;;;29.02;;
59970;SDS011;45825;45.434;9.116;2023-01-08T05:21:39;54.42;;;27.65;;
59970;SDS011;45825;45.434;9.116;2023-01-08T05:24:04;57.65;;;29.08;;
59970;SDS011;45825;45.434;9.116;2023-01-08T05:26:30;51.80;;;26.85;;
59970;SDS011;45825;45.434;9.116;2023-01-08T05:28:56;60.83;;;29.50;;
59970;SDS011;45825;45.434;9.116;2023-01-08T05:31:21;54.67;;;28.55;;
59970;SDS011;45825;45.434;9.116;2023-01-08T05:33:47;54.97;;;28.83;;
59970;SDS011;45825;45.434;9.116;2023-01-08T05:36:12;54.88;;;28.05;;
59970;SDS011;45825;45.434;9.116;2023-01-08T05:38:38;58.58;;;28.77;;
59970;SDS011;45825;45.434;9.116;2023-01-08T05:41:04;61.95;;;29.10;;
59970;SDS011;45825;45.434;9.116;2023-01-08T05:43:30;57.42;;;28.23;;
59970;SDS011;45825;45.434;9.116;2023-01-08T05:45:59;56.40;;;28.60;;
59970;SDS011;45825;45.434;9.116;2023-01-08T05:48:26;55.97;;;28.83;;
59970;SDS011;45825;45.434;9.116;2023-01-08T05:50:52;57.90;;;28.40;;
59970;SDS011;45825;45.434;9.116;2023-01-08T05:53:17;55.70;;;27.50;;
59970;SDS011;45825;45.434;9.116;2023-01-08T05:55:43;57.28;;;27.80;;
59970;SDS011;45825;45.434;9.116;2023-01-08T05:58:09;59.28;;;29.15;;
59970;SDS011;45825;45.434;9.116;2023-01-08T06:00:36;59.17;;;28.35;;
59970;SDS011;45825;45.434;9.116;2023-01-08T06:03:02;55.10;;;28.83;;
59970;SDS011;45825;45.434;9.116;2023-01-08T06:05:27;61.83;;;29.63;;
59970;SDS011;45825;45.434;9.116;2023-01-08T06:07:54;60.42;;;29.63;;
59970;SDS011;45825;45.434;9.116;2023-01-08T06:10:19;58.80;;;28.58;;
59970;SDS011;45825;45.434;9.116;2023-01-08T06:12:45;57.85;;;28.55;;
59970;SDS011;45825;45.434;9.116;2023-01-08T06:15:10;58.65;;;28.20;;
59970;SDS011;45825;45.434;9.116;2023-01-08T06:17:36;59.03;;;28.02;;
59970;SDS011;45825;45.434;9.116;2023-01-08T06:20:02;58.97;;;28.65;;
59970;SDS011;45825;45.434;9.116;2023-01-08T06:22:27;64.30;;;29.67;;
59970;SDS011;45825;45.434;9.116;2023-01-08T06:24:53;59.72;;;28.40;;
59970;SDS011;45825;45.434;9.116;2023-01-08T06:27:18;65.82;;;29.58;;
59970;SDS011;45825;45.434;9.116;2023-01-08T06:29:43;59.85;;;28.85;;
59970;SDS011;45825;45.434;9.116;2023-01-08T06:32:08;59.78;;;28.48;;
59970;SDS011;45825;45.434;9.116;2023-01-08T06:34:34;65.15;;;28.80;;
59970;SDS011;45825;45.434;9.116;2023-01-08T06:36:59;64.03;;;28.13;;
59970;SDS011;45825;45.434;9.116;2023-01-08T06:39:24;61.05;;;29.05;;
59970;SDS011;45825;45.434;9.116;2023-01-08T06:41:50;63.10;;;29.77;;
59970;SDS011;45825;45.434;9.116;2023-01-08T06:44:15;60.95;;;28.58;;
59970;SDS011;45825;45.434;9.116;2023-01-08T06:46:41;61.50;;;29.13;;
59970;SDS011;45825;45.434;9.116;2023-01-08T06:49:06;67.50;;;29.85;;
59970;SDS011;45825;45.434;9.116;2023-01-08T06:51:32;62.95;;;30.13;;
59970;SDS011;45825;45.434;9.116;2023-01-08T06:53:57;62.17;;;30.08;;
59970;SDS011;45825;45.434;9.116;2023-01-08T06:56:22;60.75;;;28.80;;
59970;SDS011;45825;45.434;9.116;2023-01-08T06:58:48;60.60;;;28.17;;
59970;SDS011;45825;45.434;9.116;2023-01-08T07:01:13;68.05;;;30.73;;
59970;SDS011;45825;45.434;9.116;2023-01-08T07:03:40;63.50;;;30.15;;
59970;SDS011;45825;45.434;9.116;2023-01-08T07:06:06;66.78;;;29.42;;
59970;SDS011;45825;45.434;9.116;2023-01-08T07:08:36;59.40;;;29.48;;
59970;SDS011;45825;45.434;9.116;2023-01-08T07:11:02;59.75;;;28.75;;
59970;SDS011;45825;45.434;9.116;2023-01-08T07:13:27;56.38;;;27.63;;
59970;SDS011;45825;45.434;9.116;2023-01-08T07:15:53;62.15;;;29.15;;
59970;SDS011;45825;45.434;9.116;2023-01-08T07:18:18;57.50;;;29.10;;
59970;SDS011;45825;45.434;9.116;2023-01-08T07:20:43;59.15;;;30.50;;
59970;SDS011;45825;45.434;9.116;2023-01-08T07:23:09;58.33;;;28.83;;
59970;SDS011;45825;45.434;9.116;2023-01-08T07:25:35;64.40;;;30.73;;
59970;SDS011;45825;45.434;9.116;2023-01-08T07:28:01;61.03;;;29.58;;
59970;SDS011;45825;45.434;9.116;2023-01-08T07:30:26;55.67;;;29.52;;
59970;SDS011;45825;45.434;9.116;2023-01-08T07:32:52;61.88;;;31.10;;
59970;SDS011;45825;45.434;9.116;2023-01-08T07:35:17;54.67;;;29.63;;
59970;SDS011;45825;45.434;9.116;2023-01-08T07:37:43;56.60;;;29.38;;
59970;SDS011;45825;45.434;9.116;2023-01-08T07:40:09;54.72;;;30.85;;
59970;SDS011;45825;45.434;9.116;2023-01-08T07:42:35;59.45;;;30.08;;
59970;SDS011;45825;45.434;9.116;2023-01-08T07:45:01;55.45;;;29.52;;
59970;SDS011;45825;45.434;9.116;2023-01-08T07:47:27;59.38;;;29.00;;
59970;SDS011;45825;45.434;9.116;2023-01-08T07:49:52;58.20;;;29.83;;
59970;SDS011;45825;45.434;9.116;2023-01-08T07:52:17;57.65;;;30.27;;
59970;SDS011;45825;45.434;9.116;2023-01-08T07:54:43;62.55;;;29.48;;
59970;SDS011;45825;45.434;9.116;2023-01-08T07:57:08;63.35;;;30.00;;
59970;SDS011;45825;45.434;9.116;2023-01-08T07:59:33;56.28;;;28.75;;
59970;SDS011;45825;45.434;9.116;2023-01-08T08:01:59;60.25;;;29.05;;
59970;SDS011;45825;45.434;9.116;2023-01-08T08:04:24;57.67;;;29.58;;
59970;SDS011;45825;45.434;9.116;2023-01-08T08:06:49;56.88;;;29.02;;
59970;SDS011;45825;45.434;9.116;2023-01-08T08:09:15;54.92;;;28.35;;
59970;SDS011;45825;45.434;9.116;2023-01-08T08:11:41;55.15;;;30.23;;
59970;SDS011;45825;45.434;9.116;2023-01-08T08:14:06;54.05;;;28.77;;
59970;SDS011;45825;45.434;9.116;2023-01-08T08:16:32;54.70;;;29.73;;
59970;SDS011;45825;45.434;9.116;2023-01-08T08:18:57;56.83;;;29.98;;
59970;SDS011;45825;45.434;9.116;2023-01-08T08:21:23;55.40;;;28.88;;
59970;SDS011;45825;45.434;9.116;2023-01-08T08:23:49;60.75;;;29.85;;
59970;SDS011;45825;45.434;9.116;2023-01-08T08:26:14;60.40;;;31.70;;
59970;SDS011;45825;45.434;9.116;2023-01-08T08:28:39;58.10;;;30.60;;
59970;SDS011;45825;45.434;9.116;2023-01-08T08:31:05;59.17;;;31.08;;
59970;SDS011;45825;45.434;9.116;2023-01-08T08:33:30;56.30;;;31.45;;
59970;SDS011;45825;45.434;9.116;2023-01-08T08:35:55;58.92;;;31.50;;
59970;SDS011;45825;45.434;9.116;2023-01-08T08:38:20;61.15;;;32.10;;
59970;SDS011;45825;45.434;9.116;2023-01-08T08:40:46;53.35;;;30.08;;
59970;SDS011;45825;45.434;9.116;2023-01-08T08:43:11;56.45;;;32.22;;
59970;SDS011;45825;45.434;9.116;2023-01-08T08:45:36;56.55;;;31.80;;
59970;SDS011;45825;45.434;9.116;2023-01-08T08:48:04;61.30;;;32.15;;
59970;SDS011;45825;45.434;9.116;2023-01-08T08:50:30;63.17;;;32.50;;
59970;SDS011;45825;45.434;9.116;2023-01-08T08:52:59;59.92;;;31.95;;
59970;SDS011;45825;45.434;9.116;2023-01-08T08:55:24;61.78;;;33.58;;
59970;SDS011;45825;45.434;9.116;2023-01-08T08:57:50;66.75;;;33.28;;
59970;SDS011;45825;45.434;9.116;2023-01-08T09:00:17;62.58;;;33.58;;
59970;SDS011;45825;45.434;9.116;2023-01-08T09:02:42;62.15;;;34.15;;
59970;SDS011;45825;45.434;9.116;2023-01-08T09:05:08;65.28;;;34.25;;
59970;SDS011;45825;45.434;9.116;2023-01-08T09:07:34;65.43;;;34.10;;
59970;SDS011;45825;45.434;9.116;2023-01-08T09:09:59;65.72;;;34.13;;
59970;SDS011;45825;45.434;9.116;2023-01-08T09:12:24;68.55;;;34.55;;
59970;SDS011;45825;45.434;9.116;2023-01-08T09:14:50;65.95;;;35.60;;
59970;SDS011;45825;45.434;9.116;2023-01-08T09:17:18;68.15;;;34.97;;
59970;SDS011;45825;45.434;9.116;2023-01-08T09:19:45;67.60;;;36.17;;
59970;SDS011;45825;45.434;9.116;2023-01-08T09:22:10;66.43;;;34.13;;
59970;SDS011;45825;45.434;9.116;2023-01-08T09:24:36;68.25;;;35.53;;
59970;SDS011;45825;45.434;9.116;2023-01-08T09:27:01;66.88;;;36.65;;
59970;SDS011;45825;45.434;9.116;2023-01-08T09:29:26;65.15;;;33.95;;
59970;SDS011;45825;45.434;9.116;2023-01-08T09:31:51;64.20;;;34.75;;
59970;SDS011;45825;45.434;9.116;2023-01-08T09:34:17;59.58;;;32.92;;
59970;SDS011;45825;45.434;9.116;2023-01-08T09:36:42;68.32;;;36.05;;
59970;SDS011;45825;45.434;9.116;2023-01-08T09:39:08;57.50;;;33.45;;
59970;SDS011;45825;45.434;9.116;2023-01-08T09:41:34;57.20;;;31.77;;
59970;SDS011;45825;45.434;9.116;2023-01-08T09:44:03;55.08;;;31.95;;
59970;SDS011;45825;45.434;9.116;2023-01-08T09:46:30;53.75;;;31.73;;
59970;SDS011;45825;45.434;9.116;2023-01-08T17:25:52;12.70;;;9.27;;
59970;SDS011;45825;45.434;9.116;2023-01-08T17:28:18;16.48;;;10.35;;
59970;SDS011;45825;45.434;9.116;2023-01-08T17:30:43;13.23;;;9.20;;
59970;SDS011;45825;45.434;9.116;2023-01-08T17:33:09;11.98;;;8.80;;
59970;SDS011;45825;45.434;9.116;2023-01-08T17:35:34;12.45;;;9.25;;
59970;SDS011;45825;45.434;9.116;2023-01-08T17:37:59;14.63;;;10.15;;
59970;SDS011;45825;45.434;9.116;2023-01-08T17:40:25;11.93;;;9.00;;
59970;SDS011;45825;45.434;9.116;2023-01-08T17:42:50;11.32;;;8.63;;
59970;SDS011;45825;45.434;9.116;2023-01-08T17:45:15;10.50;;;8.25;;
59970;SDS011;45825;45.434;9.116;2023-01-08T17:47:41;11.57;;;8.00;;
59970;SDS011;45825;45.434;9.116;2023-01-08T17:50:07;11.02;;;8.02;;
59970;SDS011;45825;45.434;9.116;2023-01-08T17:52:34;9.88;;;7.65;;
59970;SDS011;45825;45.434;9.116;2023-01-08T17:55:00;11.18;;;7.78;;
59970;SDS011;45825;45.434;9.116;2023-01-08T17:57:26;14.90;;;9.10;;
59970;SDS011;45825;45.434;9.116;2023-01-08T17:59:55;12.18;;;7.70;;
59970;SDS011;45825;45.434;9.116;2023-01-08T18:02:20;10.25;;;6.95;;
59970;SDS011;45825;45.434;9.116;2023-01-08T18:04:46;8.80;;;6.40;;
59970;SDS011;45825;45.434;9.116;2023-01-08T18:07:12;10.25;;;7.53;;
59970;SDS011;45825;45.434;9.116;2023-01-08T18:09:37;9.60;;;6.93;;
59970;SDS011;45825;45.434;9.116;2023-01-08T18:12:02;10.32;;;7.60;;
59970;SDS011;45825;45.434;9.116;2023-01-08T18:14:28;9.05;;;6.75;;
59970;SDS011;45825;45.434;9.116;2023-01-08T18:16:53;8.90;;;6.55;;
59970;SDS011;45825;45.434;9.116;2023-01-08T18:19:19;10.00;;;7.35;;
59970;SDS011;45825;45.434;9.116;2023-01-08T18:21:45;10.32;;;7.90;;
59970;SDS011;45825;45.434;9.116;2023-01-08T18:24:11;10.27;;;7.68;;
59970;SDS011;45825;45.434;9.116;2023-01-08T18:26:38;10.27;;;7.50;;
59970;SDS011;45825;45.434;9.116;2023-01-08T18:29:04;11.52;;;8.25;;
59970;SDS011;45825;45.434;9.116;2023-01-08T18:31:29;11.82;;;8.60;;
59970;SDS011;45825;45.434;9.116;2023-01-08T18:33:55;11.68;;;8.57;;
59970;SDS011;45825;45.434;9.116;2023-01-08T18:36:20;11.60;;;8.73;;
59970;SDS011;45825;45.434;9.116;2023-01-08T18:38:46;10.70;;;8.10;;
59970;SDS011;45825;45.434;9.116;2023-01-08T18:41:13;10.07;;;7.47;;
59970;SDS011;45825;45.434;9.116;2023-01-08T18:44:00;10.55;;;7.82;;
59970;SDS011;45825;45.434;9.116;2023-01-08T18:46:27;11.65;;;8.60;;
59970;SDS011;45825;45.434;9.116;2023-01-08T18:48:52;9.93;;;7.43;;
59970;SDS011;45825;45.434;9.116;2023-01-08T18:51:18;10.75;;;8.20;;
59970;SDS011;45825;45.434;9.116;2023-01-08T18:53:43;10.82;;;8.13;;
59970;SDS011;45825;45.434;9.116;2023-01-08T18:56:09;11.65;;;9.35;;
59970;SDS011;45825;45.434;9.116;2023-01-08T18:58:38;12.73;;;9.68;;
59970;SDS011;45825;45.434;9.116;2023-01-08T19:01:03;11.70;;;8.07;;
59970;SDS011;45825;45.434;9.116;2023-01-08T19:03:29;11.18;;;8.57;;
59970;SDS011;45825;45.434;9.116;2023-01-08T19:05:54;14.02;;;9.75;;
59970;SDS011;45825;45.434;9.116;2023-01-08T19:08:20;12.27;;;9.27;;
59970;SDS011;45825;45.434;9.116;2023-01-08T19:10:45;11.48;;;8.45;;
59970;SDS011;45825;45.434;9.116;2023-01-08T19:13:10;11.63;;;9.27;;
59970;SDS011;45825;45.434;9.116;2023-01-08T19:15:36;12.15;;;8.32;;
59970;SDS011;45825;45.434;9.116;2023-01-08T19:18:02;12.55;;;8.80;;
59970;SDS011;45825;45.434;9.116;2023-01-08T19:20:29;13.65;;;9.60;;
59970;SDS011;45825;45.434;9.116;2023-01-08T19:22:54;12.38;;;9.52;;
59970;SDS011;45825;45.434;9.116;2023-01-08T19:25:20;10.93;;;8.20;;
59970;SDS011;45825;45.434;9.116;2023-01-08T19:27:45;10.63;;;7.80;;
59970;SDS011;45825;45.434;9.116;2023-01-08T19:30:11;10.98;;;8.52;;
59970;SDS011;45825;45.434;9.116;2023-01-08T19:32:36;11.00;;;8.32;;
59970;SDS011;45825;45.434;9.116;2023-01-08T19:35:03;10.75;;;8.40;;
59970;SDS011;45825;45.434;9.116;2023-01-08T19:37:29;11.02;;;8.00;;
59970;SDS011;45825;45.434;9.116;2023-01-08T19:39:56;11.43;;;8.50;;
59970;SDS011;45825;45.434;9.116;2023-01-08T19:42:25;25.08;;;15.52;;
59970;SDS011;45825;45.434;9.116;2023-01-08T19:45:12;13.10;;;9.68;;
59970;SDS011;45825;45.434;9.116;2023-01-08T19:47:37;12.05;;;8.93;;
59970;SDS011;45825;45.434;9.116;2023-01-08T19:50:03;11.57;;;9.13;;
59970;SDS011;45825;45.434;9.116;2023-01-08T19:52:29;11.52;;;9.00;;
59970;SDS011;45825;45.434;9.116;2023-01-08T19:54:54;11.02;;;9.20;;
59970;SDS011;45825;45.434;9.116;2023-01-08T19:57:22;11.65;;;9.18;;
59970;SDS011;45825;45.434;9.116;2023-01-08T19:59:48;11.38;;;9.02;;
59970;SDS011;45825;45.434;9.116;2023-01-08T20:02:13;10.88;;;8.35;;
59970;SDS011;45825;45.434;9.116;2023-01-08T20:04:38;10.43;;;8.48;;
59970;SDS011;45825;45.434;9.116;2023-01-08T20:07:10;10.20;;;7.97;;
59970;SDS011;45825;45.434;9.116;2023-01-08T20:09:36;9.30;;;7.15;;
59970;SDS011;45825;45.434;9.116;2023-01-08T20:12:03;9.93;;;7.07;;
59970;SDS011;45825;45.434;9.116;2023-01-08T20:14:29;10.25;;;7.63;;
59970;SDS011;45825;45.434;9.116;2023-01-08T20:16:54;10.57;;;7.95;;
59970;SDS011;45825;45.434;9.116;2023-01-08T20:19:19;10.27;;;7.93;;
59970;SDS011;45825;45.434;9.116;2023-01-08T20:21:45;9.77;;;7.22;;
59970;SDS011;45825;45.434;9.116;2023-01-08T20:24:10;10.70;;;8.10;;
59970;SDS011;45825;45.434;9.116;2023-01-08T20:26:42;10.30;;;7.75;;
59970;SDS011;45825;45.434;9.116;2023-01-08T20:29:09;12.52;;;9.07;;
59970;SDS011;45825;45.434;9.116;2023-01-08T20:31:36;12.43;;;8.70;;
59970;SDS011;45825;45.434;9.116;2023-01-08T20:34:04;11.23;;;8.88;;
59970;SDS011;45825;45.434;9.116;2023-01-08T20:36:32;11.73;;;8.82;;
59970;SDS011;45825;45.434;9.116;2023-01-08T20:39:00;11.32;;;7.97;;
59970;SDS011;45825;45.434;9.116;2023-01-08T20:41:28;11.00;;;8.73;;
59970;SDS011;45825;45.434;9.116;2023-01-08T20:43:53;11.18;;;8.75;;
59970;SDS011;45825;45.434;9.116;2023-01-08T20:46:22;12.32;;;8.48;;
59970;SDS011;45825;45.434;9.116;2023-01-08T20:48:52;12.13;;;9.80;;
59970;SDS011;45825;45.434;9.116;2023-01-08T20:51:18;12.90;;;10.55;;
59970;SDS011;45825;45.434;9.116;2023-01-08T20:53:43;11.88;;;8.43;;
59970;SDS011;45825;45.434;9.116;2023-01-08T20:56:10;13.88;;;9.50;;
59970;SDS011;45825;45.434;9.116;2023-01-08T20:58:38;12.45;;;9.02;;
59970;SDS011;45825;45.434;9.116;2023-01-08T21:01:08;11.45;;;8.60;;
59970;SDS011;45825;45.434;9.116;2023-01-08T21:03:45;11.40;;;8.68;;
59970;SDS011;45825;45.434;9.116;2023-01-08T21:06:13;11.20;;;8.15;;
59970;SDS011;45825;45.434;9.116;2023-01-08T21:08:40;11.00;;;8.80;;
59970;SDS011;45825;45.434;9.116;2023-01-08T21:11:07;12.35;;;8.05;;
59970;SDS011;45825;45.434;9.116;2023-01-08T21:13:34;12.05;;;8.52;;
59970;SDS011;45825;45.434;9.116;2023-01-08T21:16:02;11.93;;;9.15;;
59970;SDS011;45825;45.434;9.116;2023-01-08T21:18:31;13.27;;;9.88;;
59970;SDS011;45825;45.434;9.116;2023-01-08T21:20:58;10.63;;;8.38;;
59970;SDS011;45825;45.434;9.116;2023-01-08T21:23:24;11.73;;;9.32;;
59970;SDS011;45825;45.434;9.116;2023-01-08T21:25:53;10.60;;;9.10;;
59970;SDS011;45825;45.434;9.116;2023-01-08T21:28:23;12.80;;;9.35;;
59970;SDS011;45825;45.434;9.116;2023-01-08T21:30:49;11.23;;;9.10;;
59970;SDS011;45825;45.434;9.116;2023-01-08T21:33:14;10.18;;;8.57;;
59970;SDS011;45825;45.434;9.116;2023-01-08T21:35:39;10.30;;;8.45;;
59970;SDS011;45825;45.434;9.116;2023-01-08T21:38:05;11.63;;;8.43;;
59970;SDS011;45825;45.434;9.116;2023-01-08T21:40:30;11.60;;;8.55;;
59970;SDS011;45825;45.434;9.116;2023-01-08T21:42:56;10.45;;;8.68;;
59970;SDS011;45825;45.434;9.116;2023-01-08T21:45:40;10.85;;;7.85;;
59970;SDS011;45825;45.434;9.116;2023-01-08T21:48:05;10.85;;;8.50;;
59970;SDS011;45825;45.434;9.116;2023-01-08T21:50:31;10.63;;;8.63;;
59970;SDS011;45825;45.434;9.116;2023-01-08T21:52:56;11.02;;;9.13;;
59970;SDS011;45825;45.434;9.116;2023-01-08T21:55:40;11.35;;;8.80;;
59970;SDS011;45825;45.434;9.116;2023-01-08T21:58:06;11.15;;;9.00;;
59970;SDS011;45825;45.434;9.116;2023-01-08T22:00:32;12.95;;;9.82;;
59970;SDS011;45825;45.434;9.116;2023-01-08T22:02:57;11.57;;;9.10;;
59970;SDS011;45825;45.434;9.116;2023-01-08T22:05:23;13.30;;;10.45;;
59970;SDS011;45825;45.434;9.116;2023-01-08T22:07:49;13.70;;;10.50;;
59970;SDS011;45825;45.434;9.116;2023-01-08T22:10:14;12.38;;;10.40;;